Strona główna
METAR-TAF:

METAR-TAF

Lotnisko :

Coatesville, Pensylwania, Stany Zjednoczone

Szerokość geograficzna: 39-58-44N, Długość geograficzna: 075-51-56W, wysokość: 201 m

Aktualna obserwacja pogody

Raport powstał 27 minut temu, godzina 16:55 UTC
Wiatr 10 kt od wschodnio-południowy wschód w porywach dochodzący do 16 kt
Temperatura 6°C
Wilgotność 87%
Ciśnienie 1011 hPa
Widzialność: 6.4 km
Zachmurzenie całkowite na wysokości 1300 ft
zamglenie

METAR: KMQS 151655Z AUTO 11010G16KT 4SM BR OVC013 06/04 A2986 RMK AO2

czas: 12:22 (17:22 UTC)


TAF: brakujący

Obserwacja i prognoza pogody dla ponad 4000 lotnisk (raport METAR i TAF).

Dostępne stacje oznaczono żółtymi i czerwonymi punktami na mapie.

Najedź kursorem aby zobaczyć nazwę stacji.

Kliknij aby zobaczyć obserwacje i prognozy pogody.

Aby zmienić mapę: kliknij na zielony przycisk z czarnym krzyżykiem, aby powiększyć; na zielony przycisk z myślnikiem, aby pomniejszyć; na zielone strzałki, aby przejść do map sąsiednich.


METAR-TAF: